sensor_id;sensor_type;location;lat;lon;timestamp;pressure;altitude;pressure_sealevel;temperature;humidity
49813;BME280;35706;52.100;5.056;2023-07-31T00:00:33;100843.50;;;18.55;98.12
49813;BME280;35706;52.100;5.056;2023-07-31T00:01:34;100845.34;;;18.76;97.92
49813;BME280;35706;52.100;5.056;2023-07-31T00:02:34;100845.44;;;18.83;97.13
49813;BME280;35706;52.100;5.056;2023-07-31T00:03:35;100848.28;;;18.81;97.38
49813;BME280;35706;52.100;5.056;2023-07-31T00:04:35;100852.28;;;18.92;96.72
49813;BME280;35706;52.100;5.056;2023-07-31T00:05:35;100854.09;;;18.70;98.59
49813;BME280;35706;52.100;5.056;2023-07-31T00:06:36;100849.00;;;18.75;98.84
49813;BME280;35706;52.100;5.056;2023-07-31T00:07:36;100845.22;;;18.63;100.00
49813;BME280;35706;52.100;5.056;2023-07-31T00:08:36;100844.53;;;18.76;99.68
49813;BME280;35706;52.100;5.056;2023-07-31T00:09:37;100839.38;;;18.74;100.00
49813;BME280;35706;52.100;5.056;2023-07-31T00:10:37;100843.34;;;18.78;99.63
49813;BME280;35706;52.100;5.056;2023-07-31T00:11:37;100833.88;;;18.76;100.00
49813;BME280;35706;52.100;5.056;2023-07-31T00:12:42;100832.38;;;18.88;99.84
49813;BME280;35706;52.100;5.056;2023-07-31T00:13:43;100839.34;;;18.89;100.00
49813;BME280;35706;52.100;5.056;2023-07-31T00:14:43;100841.38;;;18.87;100.00
49813;BME280;35706;52.100;5.056;2023-07-31T00:15:43;100827.31;;;18.93;100.00
49813;BME280;35706;52.100;5.056;2023-07-31T00:16:44;100832.75;;;18.85;100.00
49813;BME280;35706;52.100;5.056;2023-07-31T00:17:44;100826.84;;;18.89;100.00
49813;BME280;35706;52.100;5.056;2023-07-31T00:18:44;100826.34;;;19.01;99.71
49813;BME280;35706;52.100;5.056;2023-07-31T00:19:45;100834.47;;;18.92;100.00
49813;BME280;35706;52.100;5.056;2023-07-31T00:20:46;100834.91;;;18.96;100.00
49813;BME280;35706;52.100;5.056;2023-07-31T00:21:46;100828.94;;;18.94;100.00
49813;BME280;35706;52.100;5.056;2023-07-31T00:22:47;100833.94;;;19.04;100.00
49813;BME280;35706;52.100;5.056;2023-07-31T00:23:47;100830.06;;;19.06;100.00
49813;BME280;35706;52.100;5.056;2023-07-31T00:24:47;100827.41;;;19.06;100.00
49813;BME280;35706;52.100;5.056;2023-07-31T00:25:47;100831.75;;;19.07;100.00
49813;BME280;35706;52.100;5.056;2023-07-31T00:26:48;100832.25;;;19.18;99.68
49813;BME280;35706;52.100;5.056;2023-07-31T00:27:48;100828.22;;;19.07;100.00
49813;BME280;35706;52.100;5.056;2023-07-31T00:28:49;100837.19;;;18.99;100.00
49813;BME280;35706;52.100;5.056;2023-07-31T00:29:49;100834.78;;;19.04;100.00
49813;BME280;35706;52.100;5.056;2023-07-31T00:30:49;100843.75;;;18.97;100.00
49813;BME280;35706;52.100;5.056;2023-07-31T00:31:49;100835.41;;;18.85;100.00
49813;BME280;35706;52.100;5.056;2023-07-31T00:32:50;100830.34;;;18.90;100.00
49813;BME280;35706;52.100;5.056;2023-07-31T00:33:50;100830.38;;;18.75;100.00
49813;BME280;35706;52.100;5.056;2023-07-31T00:34:51;100825.63;;;18.70;100.00
49813;BME280;35706;52.100;5.056;2023-07-31T00:35:51;100841.22;;;18.74;100.00
49813;BME280;35706;52.100;5.056;2023-07-31T00:36:51;100837.19;;;18.78;100.00
49813;BME280;35706;52.100;5.056;2023-07-31T00:37:52;100836.34;;;18.77;100.00
49813;BME280;35706;52.100;5.056;2023-07-31T00:38:52;100832.13;;;18.83;100.00
49813;BME280;35706;52.100;5.056;2023-07-31T00:39:52;100835.59;;;18.83;100.00
49813;BME280;35706;52.100;5.056;2023-07-31T00:40:52;100832.31;;;18.81;100.00
49813;BME280;35706;52.100;5.056;2023-07-31T00:41:53;100833.63;;;18.92;100.00
49813;BME280;35706;52.100;5.056;2023-07-31T00:42:53;100829.03;;;18.64;100.00
49813;BME280;35706;52.100;5.056;2023-07-31T00:43:53;100833.88;;;18.76;100.00
49813;BME280;35706;52.100;5.056;2023-07-31T00:44:54;100831.41;;;18.74;100.00
49813;BME280;35706;52.100;5.056;2023-07-31T00:45:54;100839.16;;;18.69;100.00
49813;BME280;35706;52.100;5.056;2023-07-31T00:46:55;100828.78;;;18.59;100.00
49813;BME280;35706;52.100;5.056;2023-07-31T00:47:56;100827.06;;;18.73;100.00
49813;BME280;35706;52.100;5.056;2023-07-31T00:48:57;100828.50;;;18.69;100.00
49813;BME280;35706;52.100;5.056;2023-07-31T00:49:57;100821.91;;;18.65;100.00
49813;BME280;35706;52.100;5.056;2023-07-31T00:50:58;100828.34;;;18.77;100.00
49813;BME280;35706;52.100;5.056;2023-07-31T00:51:59;100833.78;;;18.84;100.00
49813;BME280;35706;52.100;5.056;2023-07-31T00:52:59;100837.63;;;18.81;100.00
49813;BME280;35706;52.100;5.056;2023-07-31T00:54:00;100837.28;;;18.84;100.00
49813;BME280;35706;52.100;5.056;2023-07-31T00:55:01;100829.66;;;18.81;100.00
49813;BME280;35706;52.100;5.056;2023-07-31T00:56:02;100838.09;;;18.85;100.00
49813;BME280;35706;52.100;5.056;2023-07-31T00:57:03;100827.31;;;18.93;100.00
49813;BME280;35706;52.100;5.056;2023-07-31T00:58:04;100833.41;;;18.87;100.00
49813;BME280;35706;52.100;5.056;2023-07-31T00:59:04;100833.88;;;18.76;100.00
49813;BME280;35706;52.100;5.056;2023-07-31T01:00:05;100829.78;;;18.95;100.00
49813;BME280;35706;52.100;5.056;2023-07-31T01:01:05;100824.19;;;18.89;100.00
49813;BME280;35706;52.100;5.056;2023-07-31T01:02:06;100829.28;;;18.84;100.00
49813;BME280;35706;52.100;5.056;2023-07-31T01:03:06;100831.41;;;18.74;100.00
49813;BME280;35706;52.100;5.056;2023-07-31T01:04:07;100839.75;;;18.86;100.00
49813;BME280;35706;52.100;5.056;2023-07-31T01:05:08;100818.66;;;18.69;100.00
49813;BME280;35706;52.100;5.056;2023-07-31T01:07:42;100814.13;;;18.85;100.00
49813;BME280;35706;52.100;5.056;2023-07-31T01:10:09;100827.19;;;18.80;100.00
49813;BME280;35706;52.100;5.056;2023-07-31T01:11:17;100814.13;;;18.85;100.00
49813;BME280;35706;52.100;5.056;2023-07-31T01:12:20;100832.03;;;18.76;100.00
49813;BME280;35706;52.100;5.056;2023-07-31T01:13:21;100822.75;;;18.87;100.00
49813;BME280;35706;52.100;5.056;2023-07-31T01:14:21;100829.28;;;18.84;100.00
49813;BME280;35706;52.100;5.056;2023-07-31T01:15:21;100822.38;;;18.75;100.00
49813;BME280;35706;52.100;5.056;2023-07-31T01:16:22;100822.09;;;18.63;100.00
49813;BME280;35706;52.100;5.056;2023-07-31T01:17:22;100827.13;;;18.58;100.00
49813;BME280;35706;52.100;5.056;2023-07-31T01:18:22;100819.03;;;18.66;100.00
49813;BME280;35706;52.100;5.056;2023-07-31T01:19:24;100821.31;;;18.48;100.00
49813;BME280;35706;52.100;5.056;2023-07-31T01:20:28;100821.38;;;18.55;100.00
49813;BME280;35706;52.100;5.056;2023-07-31T01:26:34;100830.19;;;18.77;100.00
49813;BME280;35706;52.100;5.056;2023-07-31T01:27:44;100826.88;;;18.53;100.00
49813;BME280;35706;52.100;5.056;2023-07-31T01:28:55;100821.81;;;18.58;100.00
49813;BME280;35706;52.100;5.056;2023-07-31T01:30:05;100817.59;;;18.85;100.00
49813;BME280;35706;52.100;5.056;2023-07-31T01:31:16;100814.59;;;18.74;100.00
49813;BME280;35706;52.100;5.056;2023-07-31T01:32:18;100816.75;;;18.63;100.00
49813;BME280;35706;52.100;5.056;2023-07-31T01:33:19;100819.47;;;18.70;100.00
49813;BME280;35706;52.100;5.056;2023-07-31T01:34:20;100822.06;;;18.78;100.00
49813;BME280;35706;52.100;5.056;2023-07-31T01:35:21;100820.94;;;18.72;100.00
49813;BME280;35706;52.100;5.056;2023-07-31T01:36:22;100812.59;;;18.76;100.00
49813;BME280;35706;52.100;5.056;2023-07-31T01:37:28;100816.16;;;18.83;100.00
49813;BME280;35706;52.100;5.056;2023-07-31T01:38:29;100819.88;;;18.67;100.00
49813;BME280;35706;52.100;5.056;2023-07-31T01:39:30;100829.31;;;18.69;100.00
49813;BME280;35706;52.100;5.056;2023-07-31T01:40:30;100826.25;;;18.72;100.00
49813;BME280;35706;52.100;5.056;2023-07-31T01:41:30;100827.84;;;18.67;100.00
49813;BME280;35706;52.100;5.056;2023-07-31T01:42:31;100819.47;;;18.70;100.00
49813;BME280;35706;52.100;5.056;2023-07-31T01:43:31;100825.19;;;18.67;100.00
49813;BME280;35706;52.100;5.056;2023-07-31T01:44:32;100828.91;;;18.72;100.00
49813;BME280;35706;52.100;5.056;2023-07-31T01:45:32;100826.19;;;18.66;100.00
49813;BME280;35706;52.100;5.056;2023-07-31T01:46:33;100833.31;;;18.59;100.00
49813;BME280;35706;52.100;5.056;2023-07-31T01:47:33;100829.44;;;18.61;100.00
49813;BME280;35706;52.100;5.056;2023-07-31T01:48:33;100820.56;;;18.76;100.00
49813;BME280;35706;52.100;5.056;2023-07-31T01:49:36;100823.25;;;18.39;100.00
49813;BME280;35706;52.100;5.056;2023-07-31T01:50:37;100818.50;;;18.56;100.00
49813;BME280;35706;52.100;5.056;2023-07-31T01:51:37;100813.97;;;18.50;100.00
49813;BME280;35706;52.100;5.056;2023-07-31T01:52:37;100807.16;;;18.47;100.00
49813;BME280;35706;52.100;5.056;2023-07-31T01:53:39;100808.06;;;18.55;100.00
49813;BME280;35706;52.100;5.056;2023-07-31T01:54:39;100803.75;;;18.54;100.00
49813;BME280;35706;52.100;5.056;2023-07-31T01:55:40;100803.31;;;18.50;100.00
49813;BME280;35706;52.100;5.056;2023-07-31T01:56:40;100812.88;;;18.44;100.00
49813;BME280;35706;52.100;5.056;2023-07-31T01:57:40;100802.13;;;18.52;100.00
49813;BME280;35706;52.100;5.056;2023-07-31T01:58:41;100798.19;;;18.48;100.00
49813;BME280;35706;52.100;5.056;2023-07-31T01:59:41;100800.66;;;18.50;100.00
49813;BME280;35706;52.100;5.056;2023-07-31T02:00:41;100793.91;;;18.54;100.00
49813;BME280;35706;52.100;5.056;2023-07-31T02:01:41;100788.88;;;18.59;100.00
49813;BME280;35706;52.100;5.056;2023-07-31T02:02:42;100789.81;;;18.51;100.00
49813;BME280;35706;52.100;5.056;2023-07-31T02:03:42;100781.88;;;18.58;100.00
49813;BME280;35706;52.100;5.056;2023-07-31T02:04:43;100776.66;;;18.65;100.00
49813;BME280;35706;52.100;5.056;2023-07-31T02:05:47;100804.72;;;18.67;99.99
49813;BME280;35706;52.100;5.056;2023-07-31T02:06:48;100783.47;;;18.74;99.61
49813;BME280;35706;52.100;5.056;2023-07-31T02:07:48;100783.09;;;18.56;100.00
49813;BME280;35706;52.100;5.056;2023-07-31T02:08:49;100776.66;;;18.65;100.00
49813;BME280;35706;52.100;5.056;2023-07-31T02:09:49;100779.53;;;18.70;100.00
49813;BME280;35706;52.100;5.056;2023-07-31T02:10:51;100775.44;;;18.67;100.00
49813;BME280;35706;52.100;5.056;2023-07-31T02:11:51;100770.69;;;18.63;100.00
49813;BME280;35706;52.100;5.056;2023-07-31T02:12:52;100770.81;;;18.55;100.00
49813;BME280;35706;52.100;5.056;2023-07-31T02:13:52;100760.97;;;18.55;100.00
49813;BME280;35706;52.100;5.056;2023-07-31T02:14:52;100771.44;;;18.57;99.88
49813;BME280;35706;52.100;5.056;2023-07-31T02:15:52;100768.34;;;18.53;100.00
49813;BME280;35706;52.100;5.056;2023-07-31T02:16:53;100759.13;;;18.56;100.00
49813;BME280;35706;52.100;5.056;2023-07-31T02:17:54;100765.53;;;18.61;100.00
49813;BME280;35706;52.100;5.056;2023-07-31T02:18:54;100756.97;;;18.66;99.80
49813;BME280;35706;52.100;5.056;2023-07-31T02:19:54;100756.63;;;18.69;99.88
49813;BME280;35706;52.100;5.056;2023-07-31T02:20:55;100757.97;;;18.80;99.08
49813;BME280;35706;52.100;5.056;2023-07-31T02:21:55;100758.38;;;18.83;99.48
49813;BME280;35706;52.100;5.056;2023-07-31T02:22:55;100763.38;;;18.71;99.78
49813;BME280;35706;52.100;5.056;2023-07-31T02:23:56;100759.31;;;18.76;99.15
49813;BME280;35706;52.100;5.056;2023-07-31T02:24:56;100757.97;;;18.80;98.83
49813;BME280;35706;52.100;5.056;2023-07-31T02:25:56;100751.84;;;18.64;99.04
49813;BME280;35706;52.100;5.056;2023-07-31T02:26:57;100756.84;;;18.74;99.04
49813;BME280;35706;52.100;5.056;2023-07-31T02:27:57;100766.75;;;18.80;98.61
49813;BME280;35706;52.100;5.056;2023-07-31T02:28:58;100759.06;;;18.70;98.00
49813;BME280;35706;52.100;5.056;2023-07-31T02:29:58;100761.94;;;18.69;98.47
49813;BME280;35706;52.100;5.056;2023-07-31T02:30:59;100758.28;;;18.77;98.23
49813;BME280;35706;52.100;5.056;2023-07-31T02:32:00;100774.84;;;18.72;97.65
49813;BME280;35706;52.100;5.056;2023-07-31T02:33:00;100752.63;;;18.80;97.69
49813;BME280;35706;52.100;5.056;2023-07-31T02:34:00;100761.63;;;18.79;97.40
49813;BME280;35706;52.100;5.056;2023-07-31T02:35:00;100770.88;;;18.83;97.52
49813;BME280;35706;52.100;5.056;2023-07-31T02:36:01;100772.91;;;18.81;97.41
49813;BME280;35706;52.100;5.056;2023-07-31T02:37:01;100764.66;;;18.76;97.59
49813;BME280;35706;52.100;5.056;2023-07-31T02:38:01;100760.22;;;18.83;97.07
49813;BME280;35706;52.100;5.056;2023-07-31T02:39:02;100759.69;;;18.94;96.57
49813;BME280;35706;52.100;5.056;2023-07-31T02:40:02;100758.69;;;18.95;96.33
49813;BME280;35706;52.100;5.056;2023-07-31T02:41:03;100758.66;;;18.88;96.69
49813;BME280;35706;52.100;5.056;2023-07-31T02:42:06;100757.91;;;19.01;96.71
49813;BME280;35706;52.100;5.056;2023-07-31T02:43:07;100748.81;;;18.89;96.76
49813;BME280;35706;52.100;5.056;2023-07-31T02:44:08;100760.41;;;18.81;96.72
49813;BME280;35706;52.100;5.056;2023-07-31T02:45:08;100749.22;;;18.86;96.53
49813;BME280;35706;52.100;5.056;2023-07-31T02:46:09;100751.59;;;18.81;97.00
49813;BME280;35706;52.100;5.056;2023-07-31T02:47:09;100752.47;;;18.88;96.25
49813;BME280;35706;52.100;5.056;2023-07-31T02:48:10;100749.03;;;18.94;96.42
49813;BME280;35706;52.100;5.056;2023-07-31T02:49:10;100743.19;;;19.05;96.01
49813;BME280;35706;52.100;5.056;2023-07-31T02:50:10;100752.16;;;18.98;96.03
49813;BME280;35706;52.100;5.056;2023-07-31T02:51:10;100743.16;;;18.99;96.06
49813;BME280;35706;52.100;5.056;2023-07-31T02:52:11;100741.91;;;18.95;96.46
49813;BME280;35706;52.100;5.056;2023-07-31T02:53:11;100747.78;;;18.90;96.36
49813;BME280;35706;52.100;5.056;2023-07-31T02:54:12;100743.44;;;18.82;96.93
49813;BME280;35706;52.100;5.056;2023-07-31T02:55:12;100745.97;;;18.90;96.88
49813;BME280;35706;52.100;5.056;2023-07-31T02:56:12;100736.78;;;19.00;96.28
49813;BME280;35706;52.100;5.056;2023-07-31T02:57:13;100736.75;;;18.93;96.70
49813;BME280;35706;52.100;5.056;2023-07-31T02:58:13;100734.28;;;18.91;96.77
49813;BME280;35706;52.100;5.056;2023-07-31T02:59:13;100750.97;;;18.79;96.77
49813;BME280;35706;52.100;5.056;2023-07-31T03:00:14;100744.56;;;18.95;96.42
49813;BME280;35706;52.100;5.056;2023-07-31T03:01:14;100736.66;;;18.80;97.22
49813;BME280;35706;52.100;5.056;2023-07-31T03:02:15;100744.84;;;18.78;96.68
49813;BME280;35706;52.100;5.056;2023-07-31T03:03:15;100732.28;;;19.00;96.04
49813;BME280;35706;52.100;5.056;2023-07-31T03:04:15;100749.38;;;18.84;95.98
49813;BME280;35706;52.100;5.056;2023-07-31T03:05:16;100730.13;;;18.82;96.15
49813;BME280;35706;52.100;5.056;2023-07-31T03:06:16;100736.97;;;18.98;95.48
49813;BME280;35706;52.100;5.056;2023-07-31T03:07:16;100739.66;;;18.98;95.73
49813;BME280;35706;52.100;5.056;2023-07-31T03:08:16;100740.88;;;18.96;95.23
49813;BME280;35706;52.100;5.056;2023-07-31T03:09:17;100733.75;;;19.03;95.11
49813;BME280;35706;52.100;5.056;2023-07-31T03:10:17;100742.66;;;19.17;94.02
49813;BME280;35706;52.100;5.056;2023-07-31T03:11:18;100747.94;;;18.82;94.96
49813;BME280;35706;52.100;5.056;2023-07-31T03:12:18;100738.94;;;18.83;95.26
49813;BME280;35706;52.100;5.056;2023-07-31T03:13:19;100730.41;;;18.94;95.13
49813;BME280;35706;52.100;5.056;2023-07-31T03:14:20;100738.00;;;18.97;94.68
49813;BME280;35706;52.100;5.056;2023-07-31T03:15:20;100738.34;;;18.87;95.23
49813;BME280;35706;52.100;5.056;2023-07-31T03:16:20;100722.13;;;18.82;95.54
49813;BME280;35706;52.100;5.056;2023-07-31T03:17:21;100741.16;;;19.07;94.52
49813;BME280;35706;52.100;5.056;2023-07-31T03:18:21;100740.31;;;19.07;94.16
49813;BME280;35706;52.100;5.056;2023-07-31T03:19:21;100737.59;;;19.00;94.60
49813;BME280;35706;52.100;5.056;2023-07-31T03:20:22;100731.63;;;18.91;94.77
49813;BME280;35706;52.100;5.056;2023-07-31T03:21:23;100729.66;;;19.07;94.63
49813;BME280;35706;52.100;5.056;2023-07-31T03:22:23;100727.00;;;19.07;94.36
49813;BME280;35706;52.100;5.056;2023-07-31T03:23:24;100727.69;;;18.87;94.96
49813;BME280;35706;52.100;5.056;2023-07-31T03:24:25;100723.09;;;19.03;94.50
49813;BME280;35706;52.100;5.056;2023-07-31T03:25:26;100734.56;;;19.03;94.91
49813;BME280;35706;52.100;5.056;2023-07-31T03:26:26;100732.91;;;19.02;94.93
49813;BME280;35706;52.100;5.056;2023-07-31T03:27:26;100733.22;;;18.86;94.94
49813;BME280;35706;52.100;5.056;2023-07-31T03:28:27;100729.34;;;18.88;94.65
49813;BME280;35706;52.100;5.056;2023-07-31T03:29:27;100733.66;;;18.89;94.89
49813;BME280;35706;52.100;5.056;2023-07-31T03:30:28;100728.44;;;18.81;94.93
49813;BME280;35706;52.100;5.056;2023-07-31T03:31:28;100738.56;;;18.86;94.67
49813;BME280;35706;52.100;5.056;2023-07-31T03:32:28;100738.66;;;18.78;95.02
49813;BME280;35706;52.100;5.056;2023-07-31T03:33:29;100728.28;;;18.83;94.56
49813;BME280;35706;52.100;5.056;2023-07-31T03:34:29;100720.81;;;19.00;94.25
49813;BME280;35706;52.100;5.056;2023-07-31T03:35:35;100727.81;;;19.01;93.82
49813;BME280;35706;52.100;5.056;2023-07-31T03:36:35;100723.44;;;18.93;94.08
49813;BME280;35706;52.100;5.056;2023-07-31T03:37:35;100723.78;;;18.62;95.06
49813;BME280;35706;52.100;5.056;2023-07-31T03:38:36;100731.00;;;18.68;94.69
49813;BME280;35706;52.100;5.056;2023-07-31T03:39:36;100721.03;;;18.77;94.13
49813;BME280;35706;52.100;5.056;2023-07-31T03:40:36;100717.19;;;18.79;94.15
49813;BME280;35706;52.100;5.056;2023-07-31T03:41:37;100720.78;;;18.71;93.85
49813;BME280;35706;52.100;5.056;2023-07-31T03:42:37;100719.66;;;18.81;93.63
49813;BME280;35706;52.100;5.056;2023-07-31T03:43:37;100716.22;;;18.87;93.83
49813;BME280;35706;52.100;5.056;2023-07-31T03:44:38;100717.09;;;18.72;94.16
49813;BME280;35706;52.100;5.056;2023-07-31T03:45:38;100723.03;;;18.96;93.34
49813;BME280;35706;52.100;5.056;2023-07-31T03:46:38;100716.72;;;18.76;93.62
49813;BME280;35706;52.100;5.056;2023-07-31T03:47:39;100718.66;;;18.82;93.75
49813;BME280;35706;52.100;5.056;2023-07-31T03:48:39;100721.53;;;18.87;93.65
49813;BME280;35706;52.100;5.056;2023-07-31T03:49:40;100720.38;;;18.75;93.89
49813;BME280;35706;52.100;5.056;2023-07-31T03:50:40;100718.75;;;18.74;93.91
49813;BME280;35706;52.100;5.056;2023-07-31T03:51:40;100733.34;;;18.78;94.54
49813;BME280;35706;52.100;5.056;2023-07-31T03:52:42;100711.28;;;18.62;94.59
49813;BME280;35706;52.100;5.056;2023-07-31T03:53:42;100708.53;;;18.99;93.63
49813;BME280;35706;52.100;5.056;2023-07-31T03:54:43;100704.16;;;18.91;93.95
49813;BME280;35706;52.100;5.056;2023-07-31T03:55:44;100700.31;;;19.00;93.38
49813;BME280;35706;52.100;5.056;2023-07-31T03:56:45;100707.19;;;18.88;93.86
49813;BME280;35706;52.100;5.056;2023-07-31T03:57:45;100705.44;;;18.74;94.52
49813;BME280;35706;52.100;5.056;2023-07-31T03:58:45;100705.22;;;18.75;94.93
49813;BME280;35706;52.100;5.056;2023-07-31T03:59:45;100707.25;;;18.73;95.08
49813;BME280;35706;52.100;5.056;2023-07-31T04:00:47;100705.56;;;18.87;94.46
49813;BME280;35706;52.100;5.056;2023-07-31T04:01:47;100696.72;;;18.80;94.65
49813;BME280;35706;52.100;5.056;2023-07-31T04:02:47;100697.34;;;18.82;94.51
49813;BME280;35706;52.100;5.056;2023-07-31T04:03:48;100690.63;;;18.86;94.63
49813;BME280;35706;52.100;5.056;2023-07-31T04:04:48;100694.06;;;18.80;94.81
49813;BME280;35706;52.100;5.056;2023-07-31T04:05:48;100690.09;;;18.76;94.54
49813;BME280;35706;52.100;5.056;2023-07-31T04:06:49;100688.25;;;18.76;95.34
49813;BME280;35706;52.100;5.056;2023-07-31T04:07:49;100694.53;;;18.68;95.03
49813;BME280;35706;52.100;5.056;2023-07-31T04:08:49;100690.91;;;18.76;94.85
49813;BME280;35706;52.100;5.056;2023-07-31T04:09:49;100688.41;;;18.96;94.32
49813;BME280;35706;52.100;5.056;2023-07-31T04:10:50;100685.47;;;18.84;94.02
49813;BME280;35706;52.100;5.056;2023-07-31T04:11:50;100681.81;;;18.64;94.97
49813;BME280;35706;52.100;5.056;2023-07-31T04:12:51;100688.22;;;18.69;95.15
49813;BME280;35706;52.100;5.056;2023-07-31T04:13:51;100689.81;;;18.42;95.80
49813;BME280;35706;52.100;5.056;2023-07-31T04:14:51;100679.31;;;18.34;96.75
49813;BME280;35706;52.100;5.056;2023-07-31T04:15:51;100682.22;;;18.61;95.86
49813;BME280;35706;52.100;5.056;2023-07-31T04:16:52;100673.38;;;18.60;95.47
49813;BME280;35706;52.100;5.056;2023-07-31T04:17:52;100682.63;;;18.64;95.85
49813;BME280;35706;52.100;5.056;2023-07-31T04:18:53;100673.28;;;18.75;95.17
49813;BME280;35706;52.100;5.056;2023-07-31T04:19:53;100681.03;;;18.70;95.19
49813;BME280;35706;52.100;5.056;2023-07-31T04:20:53;100681.44;;;18.67;95.28
49813;BME280;35706;52.100;5.056;2023-07-31T04:21:54;100677.56;;;18.69;95.22
49813;BME280;35706;52.100;5.056;2023-07-31T04:22:54;100677.66;;;18.55;96.10
49813;BME280;35706;52.100;5.056;2023-07-31T04:23:55;100680.50;;;18.53;96.65
49813;BME280;35706;52.100;5.056;2023-07-31T04:24:56;100678.59;;;18.47;97.08
49813;BME280;35706;52.100;5.056;2023-07-31T04:25:56;100681.44;;;18.45;97.25
49813;BME280;35706;52.100;5.056;2023-07-31T04:26:56;100676.69;;;18.41;97.29
49813;BME280;35706;52.100;5.056;2023-07-31T04:27:57;100673.53;;;18.52;97.07
49813;BME280;35706;52.100;5.056;2023-07-31T04:28:57;100686.34;;;18.42;97.85
49813;BME280;35706;52.100;5.056;2023-07-31T04:29:57;100672.34;;;18.33;98.02
49813;BME280;35706;52.100;5.056;2023-07-31T04:30:57;100681.47;;;18.24;98.67
49813;BME280;35706;52.100;5.056;2023-07-31T04:31:58;100683.25;;;18.38;98.09
49813;BME280;35706;52.100;5.056;2023-07-31T04:32:59;100681.28;;;18.25;98.97
49813;BME280;35706;52.100;5.056;2023-07-31T04:33:59;100675.22;;;18.10;99.64
49813;BME280;35706;52.100;5.056;2023-07-31T04:35:00;100680.34;;;18.33;98.95
49813;BME280;35706;52.100;5.056;2023-07-31T04:36:00;100698.81;;;18.20;98.82
49813;BME280;35706;52.100;5.056;2023-07-31T04:37:00;100676.41;;;18.29;99.29
49813;BME280;35706;52.100;5.056;2023-07-31T04:38:01;100677.03;;;18.09;99.85
49813;BME280;35706;52.100;5.056;2023-07-31T04:39:01;100683.38;;;18.08;100.00
49813;BME280;35706;52.100;5.056;2023-07-31T04:40:02;100682.28;;;18.03;100.00
49813;BME280;35706;52.100;5.056;2023-07-31T04:41:03;100678.88;;;18.09;100.00
49813;BME280;35706;52.100;5.056;2023-07-31T04:42:04;100678.69;;;18.10;100.00
49813;BME280;35706;52.100;5.056;2023-07-31T04:43:04;100680.53;;;18.10;100.00
49813;BME280;35706;52.100;5.056;2023-07-31T04:44:04;100664.94;;;18.07;100.00
49813;BME280;35706;52.100;5.056;2023-07-31T04:45:05;100664.88;;;18.22;100.00
49813;BME280;35706;52.100;5.056;2023-07-31T04:46:06;100667.47;;;18.15;99.78
49813;BME280;35706;52.100;5.056;2023-07-31T04:47:06;100659.06;;;18.33;99.56
49813;BME280;35706;52.100;5.056;2023-07-31T04:48:06;100665.19;;;18.34;99.59
49813;BME280;35706;52.100;5.056;2023-07-31T04:49:10;100661.31;;;18.36;99.35
49813;BME280;35706;52.100;5.056;2023-07-31T04:50:10;100662.91;;;18.09;100.00
49813;BME280;35706;52.100;5.056;2023-07-31T04:51:10;100662.28;;;18.07;100.00
49813;BME280;35706;52.100;5.056;2023-07-31T04:52:11;100668.97;;;18.03;100.00
49813;BME280;35706;52.100;5.056;2023-07-31T04:53:11;100667.72;;;17.99;100.00
49813;BME280;35706;52.100;5.056;2023-07-31T04:54:12;100665.91;;;17.99;100.00
49813;BME280;35706;52.100;5.056;2023-07-31T04:55:15;100668.97;;;18.03;100.00
49813;BME280;35706;52.100;5.056;2023-07-31T04:56:16;100655.31;;;18.27;99.83
49813;BME280;35706;52.100;5.056;2023-07-31T04:57:16;100673.44;;;18.17;99.61
49813;BME280;35706;52.100;5.056;2023-07-31T04:58:16;100646.81;;;18.17;100.00
49813;BME280;35706;52.100;5.056;2023-07-31T04:59:17;100665.38;;;18.10;100.00
49813;BME280;35706;52.100;5.056;2023-07-31T05:00:17;100665.97;;;18.06;100.00
49813;BME280;35706;52.100;5.056;2023-07-31T05:01:17;100655.09;;;18.07;100.00
49813;BME280;35706;52.100;5.056;2023-07-31T05:02:18;100656.94;;;18.07;100.00
49813;BME280;35706;52.100;5.056;2023-07-31T05:03:18;100650.25;;;18.11;100.00
49813;BME280;35706;52.100;5.056;2023-07-31T05:04:19;100645.59;;;18.20;100.00
49813;BME280;35706;52.100;5.056;2023-07-31T05:05:19;100655.41;;;18.41;99.35
49813;BME280;35706;52.100;5.056;2023-07-31T05:06:19;100653.66;;;18.05;100.00
49813;BME280;35706;52.100;5.056;2023-07-31T05:07:20;100652.38;;;18.22;100.00
49813;BME280;35706;52.100;5.056;2023-07-31T05:08:21;100648.34;;;18.05;100.00
49813;BME280;35706;52.100;5.056;2023-07-31T05:09:21;100664.44;;;18.18;100.00
49813;BME280;35706;52.100;5.056;2023-07-31T05:10:21;100649.56;;;18.02;100.00
49813;BME280;35706;52.100;5.056;2023-07-31T05:11:21;100654.69;;;18.04;100.00
49813;BME280;35706;52.100;5.056;2023-07-31T05:12:22;100653.59;;;18.20;100.00
49813;BME280;35706;52.100;5.056;2023-07-31T05:13:22;100654.69;;;18.25;100.00
49813;BME280;35706;52.100;5.056;2023-07-31T05:14:23;100674.31;;;18.46;98.96
49813;BME280;35706;52.100;5.056;2023-07-31T05:15:23;100663.47;;;18.26;99.62
49813;BME280;35706;52.100;5.056;2023-07-31T05:16:24;100650.81;;;18.28;99.90
49813;BME280;35706;52.100;5.056;2023-07-31T05:17:24;100648.84;;;18.15;100.00
49813;BME280;35706;52.100;5.056;2023-07-31T05:18:24;100645.59;;;18.41;99.14
49813;BME280;35706;52.100;5.056;2023-07-31T05:19:25;100644.91;;;18.33;99.64
49813;BME280;35706;52.100;5.056;2023-07-31T05:20:25;100650.88;;;18.13;100.00
49813;BME280;35706;52.100;5.056;2023-07-31T05:21:25;100659.19;;;18.25;100.00
49813;BME280;35706;52.100;5.056;2023-07-31T05:22:26;100641.13;;;17.99;100.00
49813;BME280;35706;52.100;5.056;2023-07-31T05:23:26;100642.84;;;17.85;100.00